Time;durP1;ratioP1;P1;durP2;ratioP2;P2;SDS_P1;SDS_P2;PMS_P1;PMS_P2;Temp;Humidity;BMP_temperature;BMP_pressure;BME280_temperature;BME280_humidity;BME280_pressure;Samples;Min_cycle;Max_cycle;Signal;HPM_P1;HPM_P2
2020/12/25 05:34:53;;;;;;;8.90;5.45;;;;;;;10.31;69.13;99876.44;5275455;26;20085;-89
2020/12/25 05:37:40;;;;;;;9.27;5.97;;;;;;;10.14;69.73;99874.84;5336561;26;20077;-88
2020/12/25 05:40:09;;;;;;;23.45;13.27;;;;;;;10.03;70.17;99884.63;5255442;27;20087;-88
2020/12/25 05:42:46;;;;;;;31.55;17.35;;;;;;;10.07;70.20;99880.22;5348452;26;20069;-88
2020/12/25 05:45:20;;;;;;;16.12;10.43;;;;;;;9.85;71.94;99882.19;5255236;26;20064;-89
2020/12/25 05:48:01;;;;;;;15.57;9.63;;;;;;;9.24;74.70;99876.69;5349112;26;20163;-88
2020/12/25 05:50:28;;;;;;;20.65;11.93;;;;;;;9.31;74.51;99874.88;5256175;27;20048;-90
2020/12/25 05:52:56;;;;;;;18.23;10.60;;;;;;;9.69;73.09;99865.75;5257170;27;20480;-89
2020/12/25 05:55:23;;;;;;;24.60;13.05;;;;;;;9.71;73.02;99864.00;5257077;27;20057;-89
2020/12/25 05:57:52;;;;;;;26.52;16.02;;;;;;;9.60;73.68;99869.34;5349870;26;20194;-89
2020/12/25 06:00:20;;;;;;;48.10;30.50;;;;;;;9.43;74.64;99863.41;5349742;26;20076;-89
2020/12/25 06:25:22;;;;;;;5.05;3.40;;;;;;;9.89;72.67;99878.69;5276640;26;20081;-87
2020/12/25 06:28:02;;;;;;;8.95;3.78;;;;;;;10.06;71.85;99881.06;5257533;27;20053;-87
2020/12/25 06:30:29;;;;;;;8.70;4.63;;;;;;;9.94;72.49;99876.84;5257130;27;20061;-88
2020/12/25 06:32:58;;;;;;;8.40;4.72;;;;;;;9.80;72.83;99879.63;5350217;26;20531;-88
2020/12/25 06:35:38;;;;;;;5.80;3.72;;;;;;;9.82;72.81;99882.22;5351025;26;20872;-88
2020/12/25 07:51:59;;;;;;;19.37;11.02;;;;;;;10.08;72.59;99956.28;5269009;26;20037;-88
2020/12/25 07:54:26;;;;;;;7.90;4.85;;;;;;;8.78;77.23;99984.44;5266224;26;20053;-87
2020/12/25 07:56:53;;;;;;;13.55;10.75;;;;;;;7.89;76.35;99979.47;5279760;27;20324;-87
2020/12/25 07:59:21;;;;;;;9.88;6.15;;;;;;;8.25;74.89;99988.09;5348602;26;20685;-87
2020/12/25 08:26:41;;;;;;;9.63;7.80;;;;;;;6.77;76.86;100028.16;5282215;26;20113;-87
2020/12/25 08:29:17;;;;;;;13.48;9.30;;;;;;;7.27;75.61;100032.63;5265567;27;20033;-88
2020/12/25 08:31:44;;;;;;;12.07;8.70;;;;;;;7.54;73.95;100030.94;5265353;27;20054;-87
2020/12/25 08:34:30;;;;;;;7.43;5.70;;;;;;;6.87;76.11;100036.87;5284157;27;20042;-87
2020/12/25 08:37:22;;;;;;;10.60;7.55;;;;;;;6.94;75.45;100039.53;5284359;27;20062;-88
2020/12/25 08:39:48;;;;;;;11.95;9.57;;;;;;;7.22;74.39;100035.22;5262708;26;20075;-86
2020/12/25 08:42:19;;;;;;;13.80;10.40;;;;;;;7.70;72.97;100030.91;5354600;26;20044;-88
2020/12/25 08:44:55;;;;;;;11.25;8.52;;;;;;;8.18;71.77;100039.59;5354091;26;20093;-88
2020/12/25 08:47:23;;;;;;;8.32;6.55;;;;;;;7.80;72.59;100044.88;5261701;27;20049;-87
2020/12/25 08:49:54;;;;;;;8.93;6.32;;;;;;;7.09;73.57;100045.62;5261928;26;20065;-89
2020/12/25 08:52:25;;;;;;;10.43;6.85;;;;;;;7.74;71.38;100052.72;5349571;26;20056;-88
2020/12/25 08:55:00;;;;;;;12.32;10.63;;;;;;;7.19;72.64;100052.66;5278029;26;20057;-87
2020/12/25 08:57:29;;;;;;;9.57;7.93;;;;;;;7.77;70.66;100052.72;5353767;26;20062;-86
2020/12/25 09:00:05;;;;;;;11.18;8.82;;;;;;;7.24;71.76;100058.75;5256978;27;20109;-89
2020/12/25 09:23:34;;;;;;;7.95;5.97;;;;;;;7.64;70.77;100087.56;5277074;26;20212;-87
2020/12/25 09:26:11;;;;;;;7.37;5.07;;;;;;;7.71;69.65;100090.19;5260944;27;20732;-88
2020/12/25 09:28:57;;;;;;;12.37;8.10;;;;;;;8.08;68.53;100090.19;5248990;27;20069;-86
2020/12/25 09:31:32;;;;;;;9.38;7.00;;;;;;;7.27;70.13;100098.84;5263655;27;20030;-86
2020/12/25 09:33:59;;;;;;;12.68;7.75;;;;;;;7.18;71.79;100088.34;5281457;27;20123;-87
2020/12/25 09:36:25;;;;;;;13.05;8.43;;;;;;;6.52;72.58;100084.56;5260947;26;20048;-87
2020/12/25 09:38:52;;;;;;;13.25;8.75;;;;;;;6.55;73.23;100077.63;5278097;27;20057;-88
2020/12/25 09:41:21;;;;;;;8.27;5.80;;;;;;;7.16;71.79;100086.59;5278761;27;20045;-86
2020/12/25 09:43:47;;;;;;;10.63;6.35;;;;;;;7.20;70.35;100089.22;5257196;26;20061;-87
2020/12/25 09:46:14;;;;;;;11.43;7.90;;;;;;;7.63;68.94;100085.84;5276573;27;20084;-87
2020/12/25 09:48:40;;;;;;;9.27;6.95;;;;;;;7.75;69.60;100088.47;5256488;27;20050;-86
2020/12/25 09:51:07;;;;;;;13.10;9.65;;;;;;;7.39;70.26;100090.16;5256945;27;20114;-87
2020/12/25 09:53:34;;;;;;;13.07;9.32;;;;;;;7.19;71.28;100092.69;5258375;27;20086;-87
2020/12/25 09:56:01;;;;;;;15.88;12.37;;;;;;;6.95;71.97;100090.03;5277926;27;20084;-87
2020/12/25 09:58:27;;;;;;;13.57;10.85;;;;;;;7.44;70.81;100082.31;5258319;27;20072;-86
2020/12/25 10:43:04;;;;;;;10.45;8.48;;;;;;;8.38;67.04;100088.41;5271599;26;20089;-87
2020/12/25 10:45:30;;;;;;;7.40;5.28;;;;;;;7.73;69.72;100093.69;5256868;27;20069;-88
2020/12/25 10:47:57;;;;;;;10.00;6.95;;;;;;;7.57;68.45;100091.91;5256196;27;20620;-87
2020/12/25 10:50:27;;;;;;;;;;;;;;;7.10;71.12;100082.22;5347764;26;20088;-88
2020/12/25 10:52:55;;;;;;;8.23;6.22;;;;;;;6.81;72.39;100079.50;5256850;27;20027;-87
2020/12/25 10:55:21;;;;;;;9.45;7.43;;;;;;;6.92;71.82;100064.75;5256804;27;20061;-87
2020/12/25 10:57:49;;;;;;;9.93;7.70;;;;;;;7.59;69.90;100064.03;5256854;27;20773;-88
2020/12/25 11:00:15;;;;;;;11.68;8.10;;;;;;;6.74;72.33;100060.34;5256910;27;20054;-87
2020/12/25 11:02:42;;;;;;;11.30;8.98;;;;;;;7.06;71.66;100051.75;5275987;27;20058;-87
2020/12/25 11:05:08;;;;;;;9.50;7.32;;;;;;;7.17;71.95;100057.84;5257162;27;20770;-87
2020/12/25 11:07:35;;;;;;;9.77;7.12;;;;;;;7.68;70.25;100052.72;5256730;27;20570;-87
2020/12/25 11:10:02;;;;;;;8.88;6.60;;;;;;;8.02;68.99;100058.81;5257135;27;20046;-87
2020/12/25 11:12:29;;;;;;;10.38;8.57;;;;;;;7.32;69.99;100059.62;5257792;27;20062;-88
2020/12/25 11:14:56;;;;;;;10.57;8.10;;;;;;;7.61;70.09;100053.56;5350897;26;20080;-88
2020/12/25 11:17:23;;;;;;;11.43;7.47;;;;;;;7.63;69.21;100059.69;5259081;26;20054;-88
2020/12/25 11:19:55;;;;;;;7.75;5.75;;;;;;;7.43;70.57;100068.38;5257886;27;20045;-87
2020/12/25 11:22:23;;;;;;;8.65;6.45;;;;;;;6.99;71.81;100066.50;5258943;27;20085;-88
2020/12/25 11:24:50;;;;;;;12.73;8.77;;;;;;;7.47;70.54;100067.53;5259222;27;20172;-88
2020/12/25 11:27:16;;;;;;;8.60;6.62;;;;;;;6.76;72.00;100071.63;5257621;27;20805;-89
2020/12/25 11:29:43;;;;;;;8.43;6.43;;;;;;;7.46;70.32;100086.66;5259366;27;20040;-88
2020/12/25 11:32:11;;;;;;;8.60;5.22;;;;;;;7.43;68.77;100081.44;5257845;27;20069;-87
2020/12/25 11:34:39;;;;;;;8.82;6.05;;;;;;;7.10;69.12;100083.97;5258117;27;20125;-89
2020/12/25 11:37:08;;;;;;;10.93;7.57;;;;;;;6.96;70.09;100076.06;5258636;27;20419;-89
2020/12/25 11:39:35;;;;;;;8.43;5.00;;;;;;;7.38;68.97;100087.50;5258844;26;20057;-87
2020/12/25 11:42:02;;;;;;;7.85;4.82;;;;;;;6.96;69.32;100086.53;5257254;27;20069;-88
2020/12/25 11:44:31;;;;;;;7.57;5.32;;;;;;;7.19;68.98;100090.09;5258523;27;20085;-88
2020/12/25 11:47:06;;;;;;;9.27;6.65;;;;;;;7.40;68.67;100084.03;5259857;27;20090;-88
2020/12/25 11:49:33;;;;;;;7.18;4.45;;;;;;;8.03;66.63;100080.59;5277595;27;20046;-88
2020/12/25 11:52:01;;;;;;;8.70;5.18;;;;;;;6.90;69.46;100087.38;5257589;27;20065;-88
2020/12/25 11:54:27;;;;;;;12.23;8.20;;;;;;;6.75;70.62;100084.69;5258195;27;20038;-88
2020/12/25 11:56:55;;;;;;;13.80;8.98;;;;;;;6.75;71.30;100077.72;5259092;27;20058;-88
2020/12/25 11:59:22;;;;;;;19.30;11.12;;;;;;;7.12;70.89;100079.59;5242006;27;20446;-89
2020/12/25 12:01:49;;;;;;;8.02;5.82;;;;;;;7.52;69.38;100083.19;5261030;26;20054;-89
2020/12/25 12:04:16;;;;;;;17.40;11.50;;;;;;;7.60;68.96;100080.59;5260767;26;20073;-88
2020/12/25 12:06:43;;;;;;;12.75;8.50;;;;;;;7.18;70.56;100093.59;5259906;27;20453;-88
2020/12/25 12:09:10;;;;;;;22.60;13.10;;;;;;;7.21;71.23;100104.03;5259248;27;20673;-88
2020/12/25 12:11:43;;;;;;;8.00;5.78;;;;;;;7.04;72.17;100100.50;5261168;27;20080;-89
2020/12/25 12:14:29;;;;;;;7.53;5.05;;;;;;;6.44;72.70;100101.91;5263374;27;20773;-88
2020/12/25 12:16:57;;;;;;;11.80;6.15;;;;;;;6.27;74.71;100105.31;5259991;27;20072;-89
2020/12/25 12:19:24;;;;;;;12.85;8.07;;;;;;;6.24;73.62;100102.69;5353204;26;20057;-88
2020/12/25 12:22:10;;;;;;;10.60;6.95;;;;;;;6.40;73.36;100110.59;5340865;26;20868;-88
2020/12/25 12:24:37;;;;;;;9.07;6.20;;;;;;;7.13;70.90;100110.09;5260192;27;20076;-89
2020/12/25 12:27:04;;;;;;;8.90;5.47;;;;;;;6.22;73.84;100122.66;5259675;26;20072;-89
2020/12/25 12:29:31;;;;;;;11.07;7.30;;;;;;;5.90;74.83;100117.16;5259857;27;20026;-89
2020/12/25 12:32:02;;;;;;;8.73;7.10;;;;;;;6.27;73.50;100112.28;5261229;27;20102;-89
2020/12/25 12:34:29;;;;;;;8.75;6.05;;;;;;;6.37;73.75;100109.72;5260007;27;20117;-90
2020/12/25 12:36:56;;;;;;;12.30;8.35;;;;;;;6.25;74.00;100114.84;5353181;26;20062;-88
2020/12/25 12:39:22;;;;;;;9.77;7.30;;;;;;;6.44;73.68;100109.75;5260191;27;20067;-88
2020/12/25 12:41:51;;;;;;;11.82;8.35;;;;;;;5.98;75.01;100110.31;5351208;26;20110;-89
2020/12/25 12:44:19;;;;;;;12.93;8.07;;;;;;;6.32;74.10;100101.00;5260362;27;20061;-89
2020/12/25 12:47:06;;;;;;;10.48;7.00;;;;;;;6.35;74.74;100094.91;5340838;26;20037;-89
2020/12/25 12:49:35;;;;;;;9.80;6.28;;;;;;;6.38;74.00;100094.91;5260101;27;20370;-88
2020/12/25 12:52:06;;;;;;;10.77;6.97;;;;;;;7.06;71.95;100085.72;5260256;27;20062;-88
2020/12/25 12:54:35;;;;;;;9.18;6.47;;;;;;;6.56;74.10;100100.28;5260444;27;20047;-89
2020/12/25 12:57:04;;;;;;;11.75;7.95;;;;;;;6.99;72.68;100105.69;5261418;27;20115;-88
2020/12/25 12:59:51;;;;;;;13.02;9.13;;;;;;;7.76;70.58;100105.88;5281806;27;20053;-89
2020/12/25 13:02:18;;;;;;;10.45;8.48;;;;;;;6.60;74.68;100104.63;5262061;27;20084;-89
2020/12/25 13:04:49;;;;;;;9.77;7.05;;;;;;;6.93;73.23;100100.44;5262107;27;20061;-88
2020/12/25 13:07:15;;;;;;;8.02;5.50;;;;;;;6.99;71.72;100097.00;5260439;27;20117;-88
2020/12/25 13:09:43;;;;;;;14.60;9.52;;;;;;;6.89;72.22;100096.09;5259906;27;20066;-88
2020/12/25 13:12:13;;;;;;;8.88;5.55;;;;;;;6.75;72.86;100101.22;5261007;26;20038;-89
2020/12/25 13:14:39;;;;;;;12.85;8.00;;;;;;;6.88;71.89;100098.69;5259182;27;20774;-88
2020/12/25 13:17:07;;;;;;;7.97;5.75;;;;;;;7.48;70.75;100108.47;5260463;26;20061;-88
2020/12/25 13:19:35;;;;;;;9.50;6.00;;;;;;;6.81;71.98;100114.31;5250467;26;239396;-88
2020/12/25 13:22:30;;;;;;;10.52;7.30;;;;;;;7.65;69.71;100111.13;5265883;27;20065;-88
2020/12/25 13:24:57;;;;;;;7.57;5.12;;;;;;;8.22;67.88;100110.25;5261406;27;20199;-89
2020/12/25 13:27:24;;;;;;;14.68;8.38;;;;;;;7.37;69.71;100125.84;5261638;27;20057;-88
2020/12/25 13:29:52;;;;;;;12.73;8.75;;;;;;;7.42;70.14;100126.75;5262238;27;20110;-88
2020/12/25 13:32:19;;;;;;;12.25;8.35;;;;;;;7.74;68.92;100121.59;5353354;26;20062;-89
2020/12/25 13:35:08;;;;;;;12.20;8.40;;;;;;;8.10;67.80;100124.22;5265861;27;20065;-88
2020/12/25 13:37:36;;;;;;;10.25;6.65;;;;;;;7.79;69.00;100118.09;5260600;27;20076;-89
2020/12/25 13:40:19;;;;;;;7.72;5.80;;;;;;;7.62;69.26;100118.97;5250302;27;20102;-89
2020/12/25 13:42:46;;;;;;;16.80;9.40;;;;;;;7.56;69.15;100124.19;5261956;27;20505;-88
2020/12/25 13:45:18;;;;;;;16.17;11.65;;;;;;;8.02;68.17;100120.72;5265047;26;20073;-89
2020/12/25 13:47:46;;;;;;;12.85;9.43;;;;;;;7.92;68.16;100125.97;5263572;27;20026;-88
2020/12/25 13:50:14;;;;;;;13.07;7.93;;;;;;;7.86;67.70;100130.31;5263048;27;20029;-89
2020/12/25 13:52:44;;;;;;;17.60;10.75;;;;;;;7.40;69.54;100128.47;5262091;27;20074;-89
2020/12/25 13:55:19;;;;;;;17.98;9.90;;;;;;;7.43;70.21;100128.47;5262268;27;20433;-89
2020/12/25 13:57:46;;;;;;;12.18;8.73;;;;;;;6.96;71.27;100112.66;5354908;26;20075;-88
2020/12/25 14:00:13;;;;;;;14.95;10.32;;;;;;;7.09;70.49;100117.06;5260536;26;20065;-87
2020/12/25 14:02:40;;;;;;;17.35;11.43;;;;;;;6.91;71.43;100117.88;5335674;26;20038;-87
2020/12/25 14:05:15;;;;;;;11.12;7.40;;;;;;;7.10;70.43;100116.19;5262287;27;20061;-88
2020/12/25 14:07:41;;;;;;;8.73;5.87;;;;;;;6.79;71.31;100120.41;5260784;27;20174;-89
2020/12/25 14:10:15;;;;;;;8.60;5.37;;;;;;;7.53;69.52;100134.63;5262314;27;20053;-89
2020/12/25 14:12:46;;;;;;;8.52;5.85;;;;;;;7.33;69.10;100126.72;5263495;27;20868;-89
2020/12/25 14:15:31;;;;;;;11.23;6.68;;;;;;;7.02;70.27;100123.13;5264484;27;20178;-89
2020/12/25 14:17:59;;;;;;;7.53;5.30;;;;;;;7.11;69.38;100135.34;5261914;27;20033;-88
2020/12/25 14:20:28;;;;;;;8.88;5.90;;;;;;;6.98;69.50;100144.88;5354032;26;20041;-89
2020/12/25 14:22:58;;;;;;;10.05;6.72;;;;;;;7.00;69.82;100141.41;5281513;27;20073;-88
2020/12/25 14:25:43;;;;;;;13.15;9.02;;;;;;;7.47;67.81;100148.56;5263679;27;20079;-87
2020/12/25 14:28:11;;;;;;;10.65;6.68;;;;;;;7.34;68.62;100151.97;5261501;27;20556;-89
2020/12/25 14:30:37;;;;;;;9.55;6.90;;;;;;;7.34;68.47;100149.37;5261579;26;20053;-89
2020/12/25 14:33:09;;;;;;;8.82;6.05;;;;;;;7.12;69.29;100160.59;5352891;26;20041;-88
2020/12/25 14:35:39;;;;;;;11.02;7.25;;;;;;;7.47;67.86;100159.00;5263601;27;20065;-89
2020/12/25 14:38:08;;;;;;;10.68;6.60;;;;;;;7.44;67.88;100161.63;5262183;27;20065;-89
2020/12/25 14:40:35;;;;;;;12.05;6.68;;;;;;;6.54;70.56;100158.56;5259829;27;20143;-89
2020/12/25 14:43:13;;;;;;;6.95;5.22;;;;;;;6.83;69.64;100170.06;5263887;27;20061;-89
2020/12/25 14:45:59;;;;;;;12.18;6.45;;;;;;;6.38;70.72;100175.81;5265619;27;20394;-89
2020/12/25 14:48:28;;;;;;;12.32;7.95;;;;;;;6.57;70.44;100182.94;5262270;27;20764;-89
2020/12/25 14:50:58;;;;;;;12.15;7.12;;;;;;;6.93;69.54;100173.56;5265893;27;20042;-89
2020/12/25 14:53:26;;;;;;;15.27;9.23;;;;;;;6.68;69.55;100159.53;5265692;26;20180;-88
2020/12/25 14:55:56;;;;;;;12.68;9.07;;;;;;;6.51;70.73;100174.19;5281572;27;20061;-89
2020/12/25 14:58:24;;;;;;;13.77;7.87;;;;;;;6.41;70.76;100167.16;5263897;26;20128;-89
2020/12/25 15:01:03;;;;;;;9.50;6.72;;;;;;;6.21;71.42;100167.00;5348391;26;20057;-90
2020/12/25 15:03:41;;;;;;;13.93;8.98;;;;;;;6.30;71.35;100172.31;5283259;27;20057;-89
2020/12/25 15:06:09;;;;;;;17.52;10.40;;;;;;;6.32;71.05;100178.38;5354811;26;20082;-89
2020/12/25 15:08:37;;;;;;;18.05;11.48;;;;;;;6.55;70.31;100176.81;5264665;27;20057;-89
2020/12/25 15:11:04;;;;;;;16.27;10.90;;;;;;;6.40;70.94;100174.09;5264059;27;20034;-89
2020/12/25 15:13:54;;;;;;;23.67;16.07;;;;;;;6.55;70.24;100187.25;5267023;27;20062;-89
2020/12/25 15:16:23;;;;;;;15.57;9.85;;;;;;;6.55;70.56;100196.84;5355107;26;20143;-89
2020/12/25 15:19:10;;;;;;;14.25;9.65;;;;;;;6.78;69.47;100197.88;5267792;27;20058;-90
2020/12/25 15:21:40;;;;;;;17.20;11.20;;;;;;;6.92;69.34;100182.28;5355063;26;20109;-89
2020/12/25 15:24:07;;;;;;;18.73;11.68;;;;;;;6.07;71.52;100186.00;5281713;27;20034;-90
2020/12/25 15:26:36;;;;;;;12.80;8.63;;;;;;;6.30;70.96;100188.81;5357300;26;20034;-89
2020/12/25 15:29:25;;;;;;;;;;;;;;;6.15;71.02;100178.28;5269405;27;20030;-89
2020/12/25 15:32:15;;;;;;;15.43;8.68;;;;;;;6.38;71.07;100188.88;5271608;27;19963;-89
2020/12/25 15:34:50;;;;;;;12.00;8.00;;;;;;;6.50;70.60;100191.59;5268084;27;20030;-89
2020/12/25 15:37:19;;;;;;;9.18;7.25;;;;;;;6.73;69.67;100196.94;5267972;26;20114;-89
2020/12/25 15:39:46;;;;;;;16.77;9.20;;;;;;;7.08;68.14;100198.03;5232074;27;20060;-90
2020/12/25 15:42:19;;;;;;;10.80;8.18;;;;;;;7.36;67.04;100210.37;5252281;27;20036;-90
2020/12/25 15:44:57;;;;;;;16.20;9.52;;;;;;;7.21;67.62;100231.22;5273150;27;20041;-89
2020/12/25 15:47:49;;;;;;;16.23;11.30;;;;;;;6.64;69.50;100222.12;5287625;27;20045;-90
2020/12/25 15:50:21;;;;;;;22.10;16.23;;;;;;;6.85;69.07;100217.06;5269263;26;20074;-89
2020/12/25 15:53:06;;;;;;;20.58;14.63;;;;;;;6.81;69.26;100226.59;5286955;27;20071;-90
2020/12/25 15:55:55;;;;;;;21.02;13.25;;;;;;;6.91;69.55;100224.06;5288142;27;20061;-89
2020/12/25 15:58:45;;;;;;;10.95;8.60;;;;;;;6.98;69.08;100233.69;5286689;27;20110;-89
2020/12/25 16:01:13;;;;;;;12.68;8.68;;;;;;;6.79;69.04;100232.69;5231988;27;20037;-88
2020/12/25 16:04:05;;;;;;;12.00;8.43;;;;;;;6.79;69.68;100235.28;5270082;27;20029;-88
2020/12/25 16:06:41;;;;;;;11.38;8.07;;;;;;;6.80;69.72;100244.91;5250985;27;20072;-89
2020/12/25 16:09:20;;;;;;;13.02;8.27;;;;;;;6.72;69.25;100243.97;5268796;27;20053;-90
2020/12/25 16:12:11;;;;;;;10.65;7.55;;;;;;;6.45;71.22;100255.06;5270860;27;20057;-90
2020/12/25 16:14:59;;;;;;;17.27;10.07;;;;;;;6.54;70.88;100249.91;5271934;27;20108;-89
2020/12/25 16:17:32;;;;;;;11.75;8.40;;;;;;;6.38;71.36;100256.72;5288018;26;20227;-89
2020/12/25 16:20:11;;;;;;;17.08;12.25;;;;;;;6.10;72.57;100264.28;5270919;27;20045;-90
2020/12/25 16:23:20;;;;;;;15.25;11.40;;;;;;;6.69;70.42;100263.09;5274434;27;20032;-90
2020/12/25 16:26:14;;;;;;;13.38;9.10;;;;;;;6.49;71.16;100268.13;5272684;27;20132;-90
2020/12/25 16:28:44;;;;;;;15.13;8.88;;;;;;;6.55;70.65;100273.41;5269745;26;20034;-89
2020/12/25 16:31:28;;;;;;;12.02;8.77;;;;;;;6.28;71.68;100267.94;5271219;26;20115;-88
2020/12/25 16:34:13;;;;;;;16.05;10.38;;;;;;;6.69;70.87;100277.87;5272075;27;20028;-91
2020/12/25 16:36:52;;;;;;;17.48;12.35;;;;;;;6.69;70.66;100276.12;5354801;26;20078;-90
2020/12/25 16:39:57;;;;;;;16.33;10.35;;;;;;;6.30;72.35;100276.69;5287476;26;20073;-90
2020/12/25 16:42:27;;;;;;;14.05;9.43;;;;;;;6.48;71.31;100281.19;5360966;26;20041;-89
2020/12/25 16:45:15;;;;;;;15.30;9.48;;;;;;;5.90;73.10;100277.09;5269743;27;20072;-91
2020/12/25 16:48:03;;;;;;;20.48;13.40;;;;;;;6.27;71.86;100282.72;5268404;27;20064;-90
2020/12/25 16:50:53;;;;;;;16.35;11.63;;;;;;;6.72;70.72;100283.12;5269122;26;20045;-90
2020/12/25 16:53:23;;;;;;;14.85;10.02;;;;;;;6.78;70.65;100291.87;5265928;27;20115;-90
2020/12/25 16:56:14;;;;;;;14.02;9.55;;;;;;;6.76;70.52;100303.16;5270178;27;20147;-89
2020/12/25 16:58:43;;;;;;;12.30;7.53;;;;;;;6.31;71.74;100304.50;5286871;27;20029;-90
2020/12/25 17:01:33;;;;;;;13.55;8.90;;;;;;;5.93;72.84;100310.19;5270096;27;20042;-89
2020/12/25 17:04:34;;;;;;;16.48;10.35;;;;;;;5.79;73.08;100312.59;5252984;27;20074;-90
2020/12/25 17:07:25;;;;;;;16.60;11.32;;;;;;;5.59;74.19;100314.97;5348110;26;20124;-90
2020/12/25 17:10:12;;;;;;;18.75;12.45;;;;;;;5.98;72.82;100318.94;5270569;27;20026;-90
2020/12/25 17:13:00;;;;;;;17.30;10.13;;;;;;;5.84;73.09;100317.88;5348548;26;20038;-90
2020/12/25 17:15:28;;;;;;;9.77;6.30;;;;;;;5.61;74.27;100323.66;5249440;26;20093;-90
2020/12/25 17:18:22;;;;;;;11.18;7.20;;;;;;;5.42;73.97;100334.72;5267782;27;20066;-90
2020/12/25 17:21:20;;;;;;;13.73;8.25;;;;;;;5.73;73.30;100329.88;5287500;27;20029;-90
2020/12/25 17:24:20;;;;;;;17.77;9.98;;;;;;;5.78;73.02;100331.69;5286583;27;20052;-89
2020/12/25 17:27:10;;;;;;;20.42;11.95;;;;;;;6.19;71.63;100333.97;5270879;27;20566;-88
2020/12/25 17:30:05;;;;;;;15.93;9.45;;;;;;;6.04;72.41;100341.63;5351431;26;20419;-88
2020/12/25 17:32:53;;;;;;;16.55;10.27;;;;;;;5.49;73.96;100343.47;5257945;27;20032;-88
2020/12/25 17:35:44;;;;;;;14.38;9.70;;;;;;;5.77;72.86;100336.91;5271875;27;20733;-89
2020/12/25 17:38:14;;;;;;;15.23;8.63;;;;;;;5.73;73.66;100342.91;5286395;27;20065;-89
2020/12/25 17:41:04;;;;;;;13.27;8.98;;;;;;;5.90;72.97;100331.84;5256258;27;20021;-89
2020/12/25 17:43:42;;;;;;;12.52;8.65;;;;;;;5.57;74.19;100328.81;5268156;26;20026;-89
2020/12/25 17:46:22;;;;;;;11.18;7.75;;;;;;;5.90;73.10;100328.37;5270653;27;20055;-89
2020/12/25 17:49:12;;;;;;;12.95;7.65;;;;;;;5.52;74.54;100340.91;5257586;27;20061;-90
2020/12/25 17:52:01;;;;;;;10.68;7.40;;;;;;;5.56;74.70;100340.09;5270337;27;20065;-91
2020/12/25 17:54:49;;;;;;;10.25;7.72;;;;;;;5.27;75.35;100350.13;5287724;27;20029;-90
2020/12/25 17:57:23;;;;;;;13.60;9.98;;;;;;;5.37;75.35;100346.78;5358120;26;20121;-89
2020/12/25 18:00:19;;;;;;;14.10;9.35;;;;;;;5.81;74.38;100357.81;5256224;27;20055;-90
2020/12/25 18:02:51;;;;;;;15.07;9.93;;;;;;;5.93;73.36;100351.91;5269198;26;20026;-89
2020/12/25 18:05:27;;;;;;;17.95;12.82;;;;;;;5.99;73.35;100349.37;5267641;26;20046;-90
2020/12/25 18:07:57;;;;;;;20.45;12.80;;;;;;;6.43;71.84;100343.78;5267022;27;20066;-90
2020/12/25 18:10:24;;;;;;;14.57;10.05;;;;;;;6.00;72.85;100351.16;5265359;26;20037;-90
2020/12/25 18:13:19;;;;;;;11.55;8.32;;;;;;;6.26;72.00;100353.16;5342771;26;20066;-91
2020/12/25 18:16:07;;;;;;;20.15;13.38;;;;;;;6.25;71.74;100359.25;5269101;26;20030;-91
2020/12/25 18:18:54;;;;;;;20.03;11.90;;;;;;;6.60;70.95;100359.59;5269987;26;20069;-90
2020/12/25 18:21:25;;;;;;;19.33;14.02;;;;;;;6.56;71.02;100363.94;5270279;27;20153;-90
2020/12/25 18:23:55;;;;;;;21.73;14.55;;;;;;;6.85;70.02;100370.28;5267087;27;20061;-90
2020/12/25 18:26:26;;;;;;;12.10;8.93;;;;;;;6.90;69.71;100368.56;5268261;27;20062;-90
2020/12/25 18:28:56;;;;;;;19.55;12.15;;;;;;;6.70;70.18;100371.00;5267737;27;20061;-90
2020/12/25 18:31:29;;;;;;;13.75;8.10;;;;;;;6.30;72.04;100373.22;5358554;26;20832;-91
2020/12/25 18:34:23;;;;;;;14.23;8.80;;;;;;;6.45;70.98;100369.91;5256912;27;20045;-90
2020/12/25 18:37:01;;;;;;;21.33;13.82;;;;;;;6.73;70.38;100371.03;5253714;27;20034;-90
2020/12/25 18:39:53;;;;;;;19.23;13.32;;;;;;;6.26;71.73;100368.81;5257598;26;20230;-90
2020/12/25 18:42:49;;;;;;;17.42;12.57;;;;;;;6.73;70.08;100366.69;5287380;26;20719;-90
2020/12/25 18:45:40;;;;;;;25.77;15.25;;;;;;;6.16;72.47;100366.97;5256299;27;20113;-90
2020/12/25 18:48:10;;;;;;;24.65;16.37;;;;;;;6.45;71.37;100365.56;5267342;27;20060;-90
2020/12/25 18:50:37;;;;;;;23.25;15.43;;;;;;;6.82;70.01;100358.97;5266828;27;20205;-89
2020/12/25 18:53:12;;;;;;;;;;;;;;;6.11;72.27;100359.94;5286390;26;20045;-88
2020/12/25 18:56:07;;;;;;;20.02;12.52;;;;;;;5.67;74.50;100370.66;5270006;27;19978;-90
2020/12/25 18:58:55;;;;;;;22.60;14.63;;;;;;;5.49;75.05;100377.34;5269599;27;20077;-89
2020/12/25 19:01:42;;;;;;;16.87;11.18;;;;;;;5.67;74.07;100378.47;5284215;27;20096;-88
2020/12/25 19:04:30;;;;;;;13.90;10.18;;;;;;;5.54;75.01;100387.00;5268981;27;20043;-89
2020/12/25 19:07:01;;;;;;;17.25;12.40;;;;;;;5.58;74.46;100386.16;5265511;26;20034;-89
2020/12/25 19:09:51;;;;;;;21.25;14.45;;;;;;;5.36;75.94;100398.03;5270435;27;20025;-89
2020/12/25 19:12:44;;;;;;;24.45;16.08;;;;;;;5.37;75.84;100404.09;5281517;27;20070;-89
2020/12/25 19:15:31;;;;;;;24.98;15.30;;;;;;;5.43;75.74;100401.59;5269446;26;20079;-89
2020/12/25 19:18:18;;;;;;;25.08;17.10;;;;;;;5.19;76.91;100410.78;5268595;27;20075;-88
2020/12/25 19:20:48;;;;;;;20.50;14.20;;;;;;;5.45;75.62;100397.28;5265684;27;20072;-89
2020/12/25 19:23:16;;;;;;;15.02;10.70;;;;;;;5.40;75.83;100405.03;5249453;27;20062;-89
2020/12/25 19:26:06;;;;;;;16.10;11.05;;;;;;;5.43;75.77;100398.97;5269095;26;20100;-89
2020/12/25 19:29:04;;;;;;;17.33;12.10;;;;;;;5.46;76.04;100404.25;5271512;26;20073;-89
2020/12/25 19:31:58;;;;;;;16.80;11.38;;;;;;;5.37;76.03;100404.09;5346920;26;20046;-89
2020/12/25 19:56:36;;;;;;;12.75;9.35;;;;;;;5.06;77.75;100447.91;5291700;26;20074;-89
2020/12/25 19:59:27;;;;;;;14.25;9.90;;;;;;;5.21;77.07;100450.75;5286398;27;20054;-88
2020/12/25 20:02:15;;;;;;;13.13;9.73;;;;;;;5.06;77.26;100455.72;5272005;27;20073;-89
2020/12/25 20:04:53;;;;;;;13.32;9.45;;;;;;;5.05;77.71;100453.06;5236581;27;20113;-89
2020/12/25 20:07:48;;;;;;;13.90;10.77;;;;;;;4.98;77.57;100452.97;5288227;27;20040;-90
2020/12/25 20:10:26;;;;;;;15.77;11.95;;;;;;;4.90;77.81;100456.28;5271228;26;20066;-90
2020/12/25 20:13:30;;;;;;;16.67;11.20;;;;;;;5.10;77.56;100467.94;5348509;26;20040;-90
2020/12/25 20:16:34;;;;;;;13.05;8.77;;;;;;;5.57;75.35;100460.00;5348501;26;20065;-90
2020/12/25 20:19:29;;;;;;;13.40;9.95;;;;;;;5.40;75.48;100471.91;5287620;26;20049;-90
2020/12/25 20:22:18;;;;;;;13.05;8.93;;;;;;;5.22;76.23;100468.13;5289534;26;20062;-91
2020/12/25 20:25:06;;;;;;;12.27;8.50;;;;;;;4.91;77.07;100465.84;5254076;27;20034;-90
2020/12/25 20:27:56;;;;;;;;;;;;;;;4.92;77.28;100465.00;5271160;27;20036;-90
2020/12/25 20:30:40;;;;;;;12.27;8.20;;;;;;;5.04;76.51;100460.00;5275486;27;19986;-91
2020/12/25 20:33:19;;;;;;;15.27;10.75;;;;;;;4.74;77.83;100460.34;5267648;27;20034;-90
2020/12/25 20:36:21;;;;;;;14.60;9.93;;;;;;;4.87;77.35;100458.81;5254938;27;20041;-90
2020/12/25 20:39:20;;;;;;;15.15;10.30;;;;;;;5.00;76.53;100466.91;5254579;27;20108;-90
2020/12/25 20:42:18;;;;;;;10.23;7.97;;;;;;;5.19;75.79;100462.88;5360196;26;20092;-90
2020/12/25 20:45:13;;;;;;;12.70;8.95;;;;;;;5.19;75.55;100470.69;5284200;26;20054;-90
2020/12/25 20:47:44;;;;;;;11.40;8.32;;;;;;;4.69;77.36;100485.41;5254250;27;20037;-90
2020/12/25 20:50:58;;;;;;;10.50;7.70;;;;;;;4.79;76.97;100489.91;5271188;27;20429;-90
2020/12/25 20:54:09;;;;;;;11.82;7.43;;;;;;;4.85;76.50;100494.34;5269541;27;20055;-91
2020/12/25 20:57:55;;;;;;;10.88;7.53;;;;;;;4.83;76.63;100489.13;5287409;26;20067;-90
2020/12/25 21:00:58;;;;;;;11.20;8.13;;;;;;;4.82;76.53;100491.69;5288202;27;20030;-90
2020/12/25 21:04:23;;;;;;;9.77;7.25;;;;;;;4.88;76.32;100491.81;5288515;26;20059;-91
2020/12/25 21:07:27;;;;;;;11.70;7.78;;;;;;;5.29;74.97;100508.19;5259189;27;20066;-90
2020/12/25 21:10:07;;;;;;;11.23;8.15;;;;;;;4.91;76.15;100507.50;5287805;27;20069;-89
2020/12/25 21:13:24;;;;;;;12.37;8.80;;;;;;;4.70;76.98;100503.62;5288572;27;20050;-90